sensor_id;sensor_type;location;lat;lon;timestamp;P1;durP1;ratioP1;P2;durP2;ratioP2
22843;SDS011;11588;51.178;4.852;2023-05-10T00:01:48;28.13;;;15.55;;
22843;SDS011;11588;51.178;4.852;2023-05-10T00:04:13;27.73;;;14.48;;
22843;SDS011;11588;51.178;4.852;2023-05-10T00:06:39;25.05;;;13.75;;
22843;SDS011;11588;51.178;4.852;2023-05-10T00:09:04;27.42;;;14.55;;
22843;SDS011;11588;51.178;4.852;2023-05-10T00:11:30;28.08;;;13.27;;
22843;SDS011;11588;51.178;4.852;2023-05-10T00:13:55;26.48;;;13.90;;
22843;SDS011;11588;51.178;4.852;2023-05-10T00:16:20;26.70;;;13.48;;
22843;SDS011;11588;51.178;4.852;2023-05-10T00:18:46;25.95;;;13.90;;
22843;SDS011;11588;51.178;4.852;2023-05-10T00:21:11;23.25;;;13.40;;
22843;SDS011;11588;51.178;4.852;2023-05-10T00:23:38;23.17;;;12.93;;
22843;SDS011;11588;51.178;4.852;2023-05-10T00:26:04;31.48;;;13.82;;
22843;SDS011;11588;51.178;4.852;2023-05-10T00:28:32;27.20;;;13.90;;
22843;SDS011;11588;51.178;4.852;2023-05-10T00:30:57;22.70;;;13.35;;
22843;SDS011;11588;51.178;4.852;2023-05-10T00:33:23;28.27;;;13.38;;
22843;SDS011;11588;51.178;4.852;2023-05-10T00:35:49;29.40;;;14.32;;
22843;SDS011;11588;51.178;4.852;2023-05-10T00:38:16;27.00;;;13.52;;
22843;SDS011;11588;51.178;4.852;2023-05-10T00:40:41;27.83;;;13.30;;
22843;SDS011;11588;51.178;4.852;2023-05-10T00:43:08;25.80;;;13.70;;
22843;SDS011;11588;51.178;4.852;2023-05-10T00:45:33;30.02;;;13.43;;
22843;SDS011;11588;51.178;4.852;2023-05-10T00:48:01;24.38;;;13.00;;
22843;SDS011;11588;51.178;4.852;2023-05-10T00:50:27;30.35;;;14.23;;
22843;SDS011;11588;51.178;4.852;2023-05-10T00:52:53;32.00;;;15.50;;
22843;SDS011;11588;51.178;4.852;2023-05-10T00:55:19;28.20;;;14.75;;
22843;SDS011;11588;51.178;4.852;2023-05-10T00:57:44;28.05;;;13.98;;
22843;SDS011;11588;51.178;4.852;2023-05-10T01:00:10;29.13;;;15.13;;
22843;SDS011;11588;51.178;4.852;2023-05-10T01:02:36;30.73;;;15.25;;
22843;SDS011;11588;51.178;4.852;2023-05-10T01:05:02;30.58;;;16.17;;
22843;SDS011;11588;51.178;4.852;2023-05-10T01:07:29;32.58;;;16.80;;
22843;SDS011;11588;51.178;4.852;2023-05-10T01:09:56;28.52;;;15.82;;
22843;SDS011;11588;51.178;4.852;2023-05-10T01:12:21;31.77;;;15.57;;
22843;SDS011;11588;51.178;4.852;2023-05-10T01:14:47;33.33;;;16.75;;
22843;SDS011;11588;51.178;4.852;2023-05-10T01:17:13;31.70;;;16.33;;
22843;SDS011;11588;51.178;4.852;2023-05-10T01:19:38;33.53;;;16.75;;
22843;SDS011;11588;51.178;4.852;2023-05-10T01:24:46;45.38;;;20.13;;
22843;SDS011;11588;51.178;4.852;2023-05-10T01:32:26;42.30;;;18.88;;
22843;SDS011;11588;51.178;4.852;2023-05-10T01:34:54;45.45;;;20.38;;
22843;SDS011;11588;51.178;4.852;2023-05-10T01:37:25;49.00;;;20.65;;
22843;SDS011;11588;51.178;4.852;2023-05-10T01:39:56;45.28;;;20.05;;
22843;SDS011;11588;51.178;4.852;2023-05-10T01:42:25;45.72;;;20.90;;
22843;SDS011;11588;51.178;4.852;2023-05-10T01:47:27;45.85;;;21.30;;
22843;SDS011;11588;51.178;4.852;2023-05-10T01:49:57;42.28;;;19.33;;
22843;SDS011;11588;51.178;4.852;2023-05-10T01:52:25;38.88;;;19.55;;
22843;SDS011;11588;51.178;4.852;2023-05-10T01:54:54;44.85;;;19.20;;
22843;SDS011;11588;51.178;4.852;2023-05-10T01:57:20;42.03;;;19.08;;
22843;SDS011;11588;51.178;4.852;2023-05-10T01:59:47;36.67;;;19.10;;
22843;SDS011;11588;51.178;4.852;2023-05-10T02:02:14;38.65;;;18.60;;
22843;SDS011;11588;51.178;4.852;2023-05-10T02:04:40;36.78;;;17.75;;
22843;SDS011;11588;51.178;4.852;2023-05-10T02:07:06;36.35;;;17.55;;
22843;SDS011;11588;51.178;4.852;2023-05-10T02:09:33;34.83;;;18.27;;
22843;SDS011;11588;51.178;4.852;2023-05-10T02:11:59;36.22;;;18.33;;
22843;SDS011;11588;51.178;4.852;2023-05-10T02:14:27;38.95;;;19.08;;
22843;SDS011;11588;51.178;4.852;2023-05-10T02:16:54;46.08;;;20.90;;
22843;SDS011;11588;51.178;4.852;2023-05-10T02:19:21;43.17;;;22.30;;
22843;SDS011;11588;51.178;4.852;2023-05-10T02:21:47;47.08;;;23.48;;
22843;SDS011;11588;51.178;4.852;2023-05-10T02:24:12;43.50;;;23.10;;
22843;SDS011;11588;51.178;4.852;2023-05-10T02:26:42;49.63;;;24.48;;
22843;SDS011;11588;51.178;4.852;2023-05-10T02:29:10;46.78;;;23.45;;
22843;SDS011;11588;51.178;4.852;2023-05-10T02:31:39;50.53;;;24.25;;
22843;SDS011;11588;51.178;4.852;2023-05-10T02:34:09;52.20;;;23.67;;
22843;SDS011;11588;51.178;4.852;2023-05-10T02:36:35;40.60;;;21.23;;
22843;SDS011;11588;51.178;4.852;2023-05-10T02:39:01;48.08;;;21.90;;
22843;SDS011;11588;51.178;4.852;2023-05-10T02:41:27;38.22;;;20.02;;
22843;SDS011;11588;51.178;4.852;2023-05-10T02:43:53;36.97;;;19.23;;
22843;SDS011;11588;51.178;4.852;2023-05-10T02:46:21;50.10;;;22.25;;
22843;SDS011;11588;51.178;4.852;2023-05-10T02:48:46;44.40;;;22.13;;
22843;SDS011;11588;51.178;4.852;2023-05-10T02:51:12;66.28;;;27.77;;
22843;SDS011;11588;51.178;4.852;2023-05-10T02:53:40;86.22;;;33.85;;
22843;SDS011;11588;51.178;4.852;2023-05-10T02:56:12;83.40;;;33.28;;
22843;SDS011;11588;51.178;4.852;2023-05-10T02:58:41;100.82;;;37.15;;
22843;SDS011;11588;51.178;4.852;2023-05-10T03:01:07;106.40;;;41.22;;
22843;SDS011;11588;51.178;4.852;2023-05-10T03:03:33;107.35;;;42.00;;
22843;SDS011;11588;51.178;4.852;2023-05-10T03:05:59;109.72;;;41.70;;
22843;SDS011;11588;51.178;4.852;2023-05-10T03:08:25;110.47;;;41.38;;
22843;SDS011;11588;51.178;4.852;2023-05-10T03:10:55;78.68;;;35.97;;
22843;SDS011;11588;51.178;4.852;2023-05-10T03:13:29;72.43;;;32.92;;
22843;SDS011;11588;51.178;4.852;2023-05-10T03:16:07;74.63;;;32.67;;
22843;SDS011;11588;51.178;4.852;2023-05-10T03:18:34;71.00;;;30.98;;
22843;SDS011;11588;51.178;4.852;2023-05-10T03:21:04;68.18;;;31.75;;
22843;SDS011;11588;51.178;4.852;2023-05-10T03:25:57;66.07;;;29.10;;
22843;SDS011;11588;51.178;4.852;2023-05-10T03:28:23;66.82;;;29.85;;
22843;SDS011;11588;51.178;4.852;2023-05-10T03:30:50;62.47;;;28.50;;
22843;SDS011;11588;51.178;4.852;2023-05-10T03:33:17;61.13;;;27.00;;
22843;SDS011;11588;51.178;4.852;2023-05-10T03:35:43;60.67;;;27.67;;
22843;SDS011;11588;51.178;4.852;2023-05-10T03:38:11;61.80;;;26.73;;
22843;SDS011;11588;51.178;4.852;2023-05-10T03:40:36;60.10;;;26.40;;
22843;SDS011;11588;51.178;4.852;2023-05-10T03:43:03;63.53;;;27.95;;
22843;SDS011;11588;51.178;4.852;2023-05-10T03:45:29;64.50;;;27.45;;
22843;SDS011;11588;51.178;4.852;2023-05-10T03:47:56;63.55;;;25.70;;
22843;SDS011;11588;51.178;4.852;2023-05-10T03:50:23;65.65;;;26.73;;
22843;SDS011;11588;51.178;4.852;2023-05-10T03:52:48;60.80;;;26.60;;
22843;SDS011;11588;51.178;4.852;2023-05-10T03:55:14;59.53;;;26.40;;
22843;SDS011;11588;51.178;4.852;2023-05-10T03:57:42;56.45;;;25.38;;
22843;SDS011;11588;51.178;4.852;2023-05-10T04:00:08;62.28;;;25.65;;
22843;SDS011;11588;51.178;4.852;2023-05-10T04:02:33;61.70;;;25.70;;
22843;SDS011;11588;51.178;4.852;2023-05-10T04:04:58;61.78;;;25.60;;
22843;SDS011;11588;51.178;4.852;2023-05-10T04:07:24;55.88;;;23.70;;
22843;SDS011;11588;51.178;4.852;2023-05-10T04:09:49;51.00;;;23.05;;
22843;SDS011;11588;51.178;4.852;2023-05-10T04:12:15;54.38;;;24.10;;
22843;SDS011;11588;51.178;4.852;2023-05-10T04:14:41;56.78;;;24.48;;
22843;SDS011;11588;51.178;4.852;2023-05-10T04:17:06;52.05;;;22.98;;
22843;SDS011;11588;51.178;4.852;2023-05-10T04:19:33;59.33;;;24.05;;
22843;SDS011;11588;51.178;4.852;2023-05-10T04:21:58;56.85;;;23.58;;
22843;SDS011;11588;51.178;4.852;2023-05-10T04:24:24;56.72;;;23.77;;
22843;SDS011;11588;51.178;4.852;2023-05-10T04:26:50;55.90;;;24.10;;
22843;SDS011;11588;51.178;4.852;2023-05-10T04:29:15;52.67;;;22.83;;
22843;SDS011;11588;51.178;4.852;2023-05-10T04:31:41;59.50;;;24.52;;
22843;SDS011;11588;51.178;4.852;2023-05-10T04:34:06;55.35;;;23.60;;
22843;SDS011;11588;51.178;4.852;2023-05-10T04:36:31;62.22;;;24.45;;
22843;SDS011;11588;51.178;4.852;2023-05-10T04:39:00;62.75;;;23.55;;
22843;SDS011;11588;51.178;4.852;2023-05-10T04:41:25;58.97;;;24.67;;
22843;SDS011;11588;51.178;4.852;2023-05-10T04:43:51;56.03;;;23.77;;
22843;SDS011;11588;51.178;4.852;2023-05-10T04:46:16;56.28;;;24.13;;
22843;SDS011;11588;51.178;4.852;2023-05-10T04:48:42;67.15;;;25.50;;
22843;SDS011;11588;51.178;4.852;2023-05-10T04:51:07;57.08;;;23.75;;
22843;SDS011;11588;51.178;4.852;2023-05-10T04:53:33;61.33;;;24.92;;
22843;SDS011;11588;51.178;4.852;2023-05-10T04:55:58;62.33;;;25.45;;
22843;SDS011;11588;51.178;4.852;2023-05-10T04:58:25;57.78;;;23.83;;
22843;SDS011;11588;51.178;4.852;2023-05-10T05:00:51;61.40;;;25.05;;
22843;SDS011;11588;51.178;4.852;2023-05-10T05:03:16;56.42;;;23.75;;
22843;SDS011;11588;51.178;4.852;2023-05-10T05:05:41;60.70;;;25.45;;
22843;SDS011;11588;51.178;4.852;2023-05-10T05:08:07;60.30;;;25.35;;
22843;SDS011;11588;51.178;4.852;2023-05-10T05:10:32;57.92;;;24.75;;
22843;SDS011;11588;51.178;4.852;2023-05-10T05:12:58;62.03;;;25.33;;
22843;SDS011;11588;51.178;4.852;2023-05-10T05:15:23;60.97;;;26.20;;
22843;SDS011;11588;51.178;4.852;2023-05-10T05:17:49;57.25;;;25.88;;
22843;SDS011;11588;51.178;4.852;2023-05-10T05:20:14;58.28;;;24.60;;
22843;SDS011;11588;51.178;4.852;2023-05-10T05:22:39;62.47;;;25.52;;
22843;SDS011;11588;51.178;4.852;2023-05-10T05:25:05;55.42;;;24.30;;
22843;SDS011;11588;51.178;4.852;2023-05-10T05:27:32;48.03;;;23.70;;
22843;SDS011;11588;51.178;4.852;2023-05-10T05:29:57;52.10;;;23.63;;
22843;SDS011;11588;51.178;4.852;2023-05-10T05:32:23;43.70;;;20.95;;
22843;SDS011;11588;51.178;4.852;2023-05-10T05:34:49;44.22;;;20.95;;
22843;SDS011;11588;51.178;4.852;2023-05-10T05:37:17;42.75;;;19.85;;
22843;SDS011;11588;51.178;4.852;2023-05-10T05:39:43;41.03;;;19.05;;
22843;SDS011;11588;51.178;4.852;2023-05-10T05:42:09;38.38;;;20.42;;
22843;SDS011;11588;51.178;4.852;2023-05-10T05:44:36;43.30;;;21.48;;
22843;SDS011;11588;51.178;4.852;2023-05-10T05:47:02;39.10;;;20.73;;
22843;SDS011;11588;51.178;4.852;2023-05-10T05:49:27;38.25;;;19.45;;
22843;SDS011;11588;51.178;4.852;2023-05-10T05:51:54;40.15;;;21.42;;
22843;SDS011;11588;51.178;4.852;2023-05-10T05:54:19;41.13;;;21.55;;
22843;SDS011;11588;51.178;4.852;2023-05-10T05:56:45;38.10;;;21.60;;
22843;SDS011;11588;51.178;4.852;2023-05-10T05:59:10;42.47;;;21.70;;
22843;SDS011;11588;51.178;4.852;2023-05-10T06:01:36;40.05;;;21.25;;
22843;SDS011;11588;51.178;4.852;2023-05-10T06:04:02;41.92;;;22.00;;
22843;SDS011;11588;51.178;4.852;2023-05-10T06:06:28;49.28;;;23.40;;
22843;SDS011;11588;51.178;4.852;2023-05-10T06:08:53;47.08;;;23.30;;
22843;SDS011;11588;51.178;4.852;2023-05-10T06:11:18;45.83;;;22.25;;
22843;SDS011;11588;51.178;4.852;2023-05-10T06:13:46;40.83;;;21.98;;
22843;SDS011;11588;51.178;4.852;2023-05-10T06:16:12;43.20;;;22.48;;
22843;SDS011;11588;51.178;4.852;2023-05-10T06:18:38;42.05;;;22.05;;
22843;SDS011;11588;51.178;4.852;2023-05-10T06:21:06;38.17;;;20.77;;
22843;SDS011;11588;51.178;4.852;2023-05-10T06:23:31;38.38;;;21.73;;
22843;SDS011;11588;51.178;4.852;2023-05-10T06:25:57;36.13;;;20.88;;
22843;SDS011;11588;51.178;4.852;2023-05-10T06:28:22;34.65;;;19.90;;
22843;SDS011;11588;51.178;4.852;2023-05-10T06:30:48;37.50;;;21.90;;
22843;SDS011;11588;51.178;4.852;2023-05-10T06:33:14;40.10;;;21.88;;
22843;SDS011;11588;51.178;4.852;2023-05-10T06:35:42;35.97;;;21.25;;
22843;SDS011;11588;51.178;4.852;2023-05-10T06:38:08;38.15;;;21.25;;
22843;SDS011;11588;51.178;4.852;2023-05-10T06:40:33;39.28;;;21.88;;
22843;SDS011;11588;51.178;4.852;2023-05-10T06:42:59;32.63;;;20.38;;
22843;SDS011;11588;51.178;4.852;2023-05-10T06:45:27;33.78;;;19.40;;
22843;SDS011;11588;51.178;4.852;2023-05-10T06:47:52;31.92;;;19.20;;
22843;SDS011;11588;51.178;4.852;2023-05-10T06:50:18;30.95;;;19.10;;
22843;SDS011;11588;51.178;4.852;2023-05-10T06:52:43;30.08;;;18.77;;
22843;SDS011;11588;51.178;4.852;2023-05-10T06:55:10;25.55;;;16.60;;
22843;SDS011;11588;51.178;4.852;2023-05-10T06:57:36;24.77;;;16.55;;
22843;SDS011;11588;51.178;4.852;2023-05-10T07:00:02;24.20;;;16.48;;
22843;SDS011;11588;51.178;4.852;2023-05-10T07:02:30;24.27;;;15.95;;
22843;SDS011;11588;51.178;4.852;2023-05-10T07:04:55;25.35;;;16.13;;
22843;SDS011;11588;51.178;4.852;2023-05-10T07:07:21;24.58;;;15.20;;
22843;SDS011;11588;51.178;4.852;2023-05-10T07:09:46;26.55;;;16.80;;
22843;SDS011;11588;51.178;4.852;2023-05-10T07:12:13;24.00;;;15.63;;
22843;SDS011;11588;51.178;4.852;2023-05-10T07:14:40;20.92;;;14.63;;
22843;SDS011;11588;51.178;4.852;2023-05-10T07:17:05;19.75;;;13.55;;
22843;SDS011;11588;51.178;4.852;2023-05-10T07:19:33;22.98;;;15.00;;
22843;SDS011;11588;51.178;4.852;2023-05-10T07:22:00;21.58;;;15.55;;
22843;SDS011;11588;51.178;4.852;2023-05-10T07:24:26;23.55;;;14.30;;
22843;SDS011;11588;51.178;4.852;2023-05-10T07:26:51;20.83;;;13.88;;
22843;SDS011;11588;51.178;4.852;2023-05-10T07:29:16;21.20;;;15.07;;
22843;SDS011;11588;51.178;4.852;2023-05-10T07:31:42;18.05;;;13.43;;
22843;SDS011;11588;51.178;4.852;2023-05-10T07:34:08;16.70;;;12.23;;
22843;SDS011;11588;51.178;4.852;2023-05-10T07:36:34;13.43;;;9.80;;
22843;SDS011;11588;51.178;4.852;2023-05-10T07:39:00;13.65;;;9.52;;
22843;SDS011;11588;51.178;4.852;2023-05-10T07:41:25;14.05;;;9.48;;
22843;SDS011;11588;51.178;4.852;2023-05-10T07:43:51;12.43;;;9.45;;
22843;SDS011;11588;51.178;4.852;2023-05-10T07:46:18;14.82;;;10.18;;
22843;SDS011;11588;51.178;4.852;2023-05-10T07:48:45;15.85;;;10.48;;
22843;SDS011;11588;51.178;4.852;2023-05-10T07:51:11;13.02;;;8.75;;
22843;SDS011;11588;51.178;4.852;2023-05-10T07:53:37;11.98;;;8.30;;
22843;SDS011;11588;51.178;4.852;2023-05-10T07:56:20;13.48;;;8.95;;
22843;SDS011;11588;51.178;4.852;2023-05-10T07:58:46;11.18;;;8.40;;
22843;SDS011;11588;51.178;4.852;2023-05-10T08:01:11;13.77;;;8.45;;
22843;SDS011;11588;51.178;4.852;2023-05-10T08:03:36;13.57;;;9.90;;
22843;SDS011;11588;51.178;4.852;2023-05-10T08:06:03;13.65;;;10.45;;
22843;SDS011;11588;51.178;4.852;2023-05-10T08:08:28;13.02;;;9.32;;
22843;SDS011;11588;51.178;4.852;2023-05-10T08:10:54;13.50;;;9.80;;
22843;SDS011;11588;51.178;4.852;2023-05-10T08:13:19;12.05;;;9.30;;
22843;SDS011;11588;51.178;4.852;2023-05-10T08:15:46;12.73;;;9.38;;
22843;SDS011;11588;51.178;4.852;2023-05-10T08:18:11;12.48;;;10.10;;
22843;SDS011;11588;51.178;4.852;2023-05-10T08:20:37;13.07;;;10.00;;
22843;SDS011;11588;51.178;4.852;2023-05-10T08:23:02;14.82;;;10.50;;
22843;SDS011;11588;51.178;4.852;2023-05-10T08:25:28;18.27;;;13.48;;
22843;SDS011;11588;51.178;4.852;2023-05-10T08:27:53;18.15;;;13.00;;
22843;SDS011;11588;51.178;4.852;2023-05-10T08:30:20;20.42;;;14.38;;
22843;SDS011;11588;51.178;4.852;2023-05-10T08:32:45;18.88;;;15.18;;
22843;SDS011;11588;51.178;4.852;2023-05-10T08:35:10;20.83;;;14.48;;
22843;SDS011;11588;51.178;4.852;2023-05-10T08:37:37;21.02;;;15.65;;
22843;SDS011;11588;51.178;4.852;2023-05-10T08:40:04;18.88;;;13.88;;
22843;SDS011;11588;51.178;4.852;2023-05-10T08:42:30;18.63;;;13.52;;
22843;SDS011;11588;51.178;4.852;2023-05-10T08:45:00;11.32;;;9.18;;
22843;SDS011;11588;51.178;4.852;2023-05-10T08:47:25;11.07;;;8.93;;
22843;SDS011;11588;51.178;4.852;2023-05-10T08:49:51;14.32;;;10.52;;
22843;SDS011;11588;51.178;4.852;2023-05-10T08:52:17;17.40;;;12.55;;
22843;SDS011;11588;51.178;4.852;2023-05-10T08:54:43;18.73;;;13.35;;
22843;SDS011;11588;51.178;4.852;2023-05-10T08:57:09;15.38;;;12.60;;
22843;SDS011;11588;51.178;4.852;2023-05-10T08:59:35;18.83;;;13.50;;
22843;SDS011;11588;51.178;4.852;2023-05-10T09:02:00;31.58;;;18.92;;
22843;SDS011;11588;51.178;4.852;2023-05-10T09:04:27;34.28;;;21.42;;
22843;SDS011;11588;51.178;4.852;2023-05-10T09:06:54;29.55;;;20.35;;
22843;SDS011;11588;51.178;4.852;2023-05-10T09:09:20;29.55;;;20.38;;
22843;SDS011;11588;51.178;4.852;2023-05-10T09:11:46;32.50;;;20.65;;
22843;SDS011;11588;51.178;4.852;2023-05-10T09:14:12;33.20;;;20.70;;
22843;SDS011;11588;51.178;4.852;2023-05-10T09:16:38;27.70;;;18.00;;
22843;SDS011;11588;51.178;4.852;2023-05-10T09:19:07;22.88;;;15.73;;
22843;SDS011;11588;51.178;4.852;2023-05-10T09:21:34;26.98;;;16.67;;
22843;SDS011;11588;51.178;4.852;2023-05-10T09:24:04;21.23;;;14.38;;
22843;SDS011;11588;51.178;4.852;2023-05-10T09:26:30;21.08;;;14.68;;
22843;SDS011;11588;51.178;4.852;2023-05-10T09:28:56;23.73;;;15.82;;
22843;SDS011;11588;51.178;4.852;2023-05-10T09:31:23;24.38;;;15.55;;
22843;SDS011;11588;51.178;4.852;2023-05-10T09:33:50;27.60;;;17.52;;
22843;SDS011;11588;51.178;4.852;2023-05-10T09:36:16;25.35;;;16.35;;
22843;SDS011;11588;51.178;4.852;2023-05-10T09:38:44;23.15;;;15.30;;
22843;SDS011;11588;51.178;4.852;2023-05-10T09:43:43;23.90;;;15.00;;
22843;SDS011;11588;51.178;4.852;2023-05-10T09:46:09;30.58;;;17.50;;
22843;SDS011;11588;51.178;4.852;2023-05-10T09:48:42;24.75;;;16.38;;
22843;SDS011;11588;51.178;4.852;2023-05-10T09:53:35;25.15;;;14.05;;
22843;SDS011;11588;51.178;4.852;2023-05-10T09:56:02;24.33;;;14.32;;
22843;SDS011;11588;51.178;4.852;2023-05-10T09:58:28;26.25;;;13.30;;
22843;SDS011;11588;51.178;4.852;2023-05-10T10:00:53;22.27;;;13.57;;
22843;SDS011;11588;51.178;4.852;2023-05-10T10:03:20;25.98;;;13.95;;
22843;SDS011;11588;51.178;4.852;2023-05-10T10:05:47;22.98;;;13.35;;
22843;SDS011;11588;51.178;4.852;2023-05-10T10:08:13;21.13;;;12.73;;
22843;SDS011;11588;51.178;4.852;2023-05-10T10:10:39;21.58;;;12.70;;
22843;SDS011;11588;51.178;4.852;2023-05-10T10:13:08;21.65;;;12.82;;
22843;SDS011;11588;51.178;4.852;2023-05-10T10:15:34;19.85;;;12.75;;
22843;SDS011;11588;51.178;4.852;2023-05-10T10:17:59;22.17;;;13.38;;
22843;SDS011;11588;51.178;4.852;2023-05-10T10:20:25;22.38;;;12.40;;
22843;SDS011;11588;51.178;4.852;2023-05-10T10:22:51;24.00;;;13.32;;
22843;SDS011;11588;51.178;4.852;2023-05-10T10:25:19;27.13;;;13.25;;
22843;SDS011;11588;51.178;4.852;2023-05-10T10:27:56;21.70;;;13.07;;
22843;SDS011;11588;51.178;4.852;2023-05-10T10:35:29;19.35;;;11.27;;
22843;SDS011;11588;51.178;4.852;2023-05-10T10:37:56;17.77;;;11.35;;
22843;SDS011;11588;51.178;4.852;2023-05-10T10:40:23;22.10;;;11.57;;
22843;SDS011;11588;51.178;4.852;2023-05-10T10:42:49;21.50;;;11.02;;
22843;SDS011;11588;51.178;4.852;2023-05-10T10:45:15;19.75;;;11.10;;
22843;SDS011;11588;51.178;4.852;2023-05-10T10:47:41;19.88;;;11.80;;
22843;SDS011;11588;51.178;4.852;2023-05-10T10:50:08;20.13;;;11.23;;
22843;SDS011;11588;51.178;4.852;2023-05-10T10:52:37;19.65;;;11.23;;
22843;SDS011;11588;51.178;4.852;2023-05-10T10:55:04;21.25;;;11.45;;
22843;SDS011;11588;51.178;4.852;2023-05-10T10:57:31;18.58;;;11.40;;
22843;SDS011;11588;51.178;4.852;2023-05-10T11:07:35;24.27;;;11.27;;
22843;SDS011;11588;51.178;4.852;2023-05-10T11:10:05;18.90;;;11.35;;
22843;SDS011;11588;51.178;4.852;2023-05-10T11:12:30;20.92;;;11.30;;
22843;SDS011;11588;51.178;4.852;2023-05-10T11:14:57;20.00;;;11.90;;
22843;SDS011;11588;51.178;4.852;2023-05-10T11:17:24;22.02;;;12.45;;
22843;SDS011;11588;51.178;4.852;2023-05-10T11:22:22;25.20;;;13.65;;
22843;SDS011;11588;51.178;4.852;2023-05-10T11:24:56;23.48;;;12.13;;
22843;SDS011;11588;51.178;4.852;2023-05-10T11:27:21;22.87;;;14.37;;
22843;SDS011;11588;51.178;4.852;2023-05-10T11:29:51;22.52;;;12.93;;
22843;SDS011;11588;51.178;4.852;2023-05-10T11:32:16;27.40;;;12.90;;
22843;SDS011;11588;51.178;4.852;2023-05-10T11:34:42;26.20;;;14.25;;
22843;SDS011;11588;51.178;4.852;2023-05-10T11:37:13;28.15;;;15.02;;
22843;SDS011;11588;51.178;4.852;2023-05-10T11:39:39;29.17;;;15.02;;
22843;SDS011;11588;51.178;4.852;2023-05-10T11:42:11;28.95;;;15.38;;
22843;SDS011;11588;51.178;4.852;2023-05-10T11:44:39;24.77;;;13.95;;
22843;SDS011;11588;51.178;4.852;2023-05-10T11:47:05;26.83;;;14.35;;
22843;SDS011;11588;51.178;4.852;2023-05-10T11:49:31;31.05;;;15.23;;
22843;SDS011;11588;51.178;4.852;2023-05-10T11:54:31;29.02;;;15.70;;
22843;SDS011;11588;51.178;4.852;2023-05-10T11:56:57;25.95;;;14.15;;
22843;SDS011;11588;51.178;4.852;2023-05-10T11:59:23;28.48;;;14.88;;
22843;SDS011;11588;51.178;4.852;2023-05-10T12:01:50;32.88;;;14.55;;
22843;SDS011;11588;51.178;4.852;2023-05-10T12:04:16;27.13;;;13.85;;
22843;SDS011;11588;51.178;4.852;2023-05-10T12:06:41;28.52;;;14.27;;
22843;SDS011;11588;51.178;4.852;2023-05-10T12:09:07;27.52;;;14.32;;
22843;SDS011;11588;51.178;4.852;2023-05-10T12:11:35;24.13;;;14.27;;
22843;SDS011;11588;51.178;4.852;2023-05-10T12:14:03;22.13;;;13.23;;
22843;SDS011;11588;51.178;4.852;2023-05-10T12:16:29;21.08;;;13.43;;
22843;SDS011;11588;51.178;4.852;2023-05-10T12:18:57;21.15;;;13.55;;
22843;SDS011;11588;51.178;4.852;2023-05-10T12:21:22;21.85;;;13.65;;
22843;SDS011;11588;51.178;4.852;2023-05-10T12:23:49;28.00;;;14.57;;
22843;SDS011;11588;51.178;4.852;2023-05-10T12:26:15;29.15;;;14.15;;
22843;SDS011;11588;51.178;4.852;2023-05-10T12:28:41;22.75;;;13.18;;
22843;SDS011;11588;51.178;4.852;2023-05-10T12:31:06;22.80;;;13.60;;
22843;SDS011;11588;51.178;4.852;2023-05-10T12:36:06;17.35;;;11.35;;
22843;SDS011;11588;51.178;4.852;2023-05-10T12:38:34;17.80;;;11.57;;
22843;SDS011;11588;51.178;4.852;2023-05-10T12:41:02;20.17;;;12.27;;
22843;SDS011;11588;51.178;4.852;2023-05-10T12:43:28;18.13;;;11.93;;
22843;SDS011;11588;51.178;4.852;2023-05-10T12:45:55;19.00;;;11.60;;
22843;SDS011;11588;51.178;4.852;2023-05-10T12:48:20;18.80;;;12.02;;
22843;SDS011;11588;51.178;4.852;2023-05-10T12:50:46;18.40;;;11.77;;
22843;SDS011;11588;51.178;4.852;2023-05-10T12:53:12;18.95;;;11.82;;
22843;SDS011;11588;51.178;4.852;2023-05-10T12:55:38;17.25;;;11.27;;
22843;SDS011;11588;51.178;4.852;2023-05-10T12:58:04;20.88;;;11.63;;
22843;SDS011;11588;51.178;4.852;2023-05-10T13:00:29;17.70;;;11.13;;
22843;SDS011;11588;51.178;4.852;2023-05-10T13:02:57;19.80;;;12.63;;
22843;SDS011;11588;51.178;4.852;2023-05-10T13:05:22;19.15;;;12.32;;
22843;SDS011;11588;51.178;4.852;2023-05-10T13:07:47;18.00;;;11.77;;
22843;SDS011;11588;51.178;4.852;2023-05-10T13:10:14;18.98;;;12.45;;
22843;SDS011;11588;51.178;4.852;2023-05-10T13:12:40;18.85;;;12.15;;
22843;SDS011;11588;51.178;4.852;2023-05-10T13:15:05;20.20;;;13.18;;
22843;SDS011;11588;51.178;4.852;2023-05-10T13:17:31;20.65;;;12.27;;
22843;SDS011;11588;51.178;4.852;2023-05-10T13:19:57;21.02;;;12.50;;
22843;SDS011;11588;51.178;4.852;2023-05-10T13:22:23;18.88;;;12.90;;
22843;SDS011;11588;51.178;4.852;2023-05-10T13:24:48;20.27;;;12.60;;
22843;SDS011;11588;51.178;4.852;2023-05-10T13:27:13;21.08;;;12.30;;
22843;SDS011;11588;51.178;4.852;2023-05-10T13:29:39;19.92;;;12.48;;
22843;SDS011;11588;51.178;4.852;2023-05-10T13:32:04;21.65;;;12.70;;
22843;SDS011;11588;51.178;4.852;2023-05-10T13:34:30;18.50;;;12.85;;
22843;SDS011;11588;51.178;4.852;2023-05-10T13:36:55;21.10;;;12.38;;
22843;SDS011;11588;51.178;4.852;2023-05-10T13:39:21;22.50;;;13.05;;
22843;SDS011;11588;51.178;4.852;2023-05-10T13:41:48;20.63;;;13.30;;
22843;SDS011;11588;51.178;4.852;2023-05-10T13:44:14;19.90;;;13.32;;
22843;SDS011;11588;51.178;4.852;2023-05-10T13:46:41;24.60;;;13.95;;
22843;SDS011;11588;51.178;4.852;2023-05-10T13:49:08;24.10;;;13.75;;
22843;SDS011;11588;51.178;4.852;2023-05-10T13:51:34;29.20;;;14.85;;
22843;SDS011;11588;51.178;4.852;2023-05-10T13:53:59;24.77;;;15.10;;
22843;SDS011;11588;51.178;4.852;2023-05-10T13:56:24;23.92;;;15.77;;
22843;SDS011;11588;51.178;4.852;2023-05-10T13:58:50;26.25;;;16.95;;
22843;SDS011;11588;51.178;4.852;2023-05-10T14:01:16;31.25;;;17.48;;
22843;SDS011;11588;51.178;4.852;2023-05-10T14:03:41;28.05;;;17.13;;
22843;SDS011;11588;51.178;4.852;2023-05-10T14:06:07;30.95;;;18.50;;
22843;SDS011;11588;51.178;4.852;2023-05-10T14:08:33;31.40;;;18.63;;
22843;SDS011;11588;51.178;4.852;2023-05-10T14:10:59;33.17;;;18.58;;
22843;SDS011;11588;51.178;4.852;2023-05-10T14:13:24;32.65;;;19.05;;
22843;SDS011;11588;51.178;4.852;2023-05-10T14:15:50;37.63;;;21.48;;
22843;SDS011;11588;51.178;4.852;2023-05-10T14:18:19;39.35;;;22.60;;
22843;SDS011;11588;51.178;4.852;2023-05-10T14:20:44;41.15;;;22.42;;
22843;SDS011;11588;51.178;4.852;2023-05-10T14:23:10;42.80;;;23.88;;
22843;SDS011;11588;51.178;4.852;2023-05-10T14:25:35;40.88;;;22.95;;
22843;SDS011;11588;51.178;4.852;2023-05-10T14:28:02;36.17;;;22.23;;
22843;SDS011;11588;51.178;4.852;2023-05-10T14:30:27;35.45;;;21.77;;
22843;SDS011;11588;51.178;4.852;2023-05-10T14:32:53;32.58;;;19.60;;
22843;SDS011;11588;51.178;4.852;2023-05-10T14:35:19;31.13;;;18.48;;
22843;SDS011;11588;51.178;4.852;2023-05-10T14:37:44;29.20;;;18.50;;
22843;SDS011;11588;51.178;4.852;2023-05-10T14:40:10;30.35;;;18.58;;
22843;SDS011;11588;51.178;4.852;2023-05-10T14:42:35;33.45;;;19.95;;
22843;SDS011;11588;51.178;4.852;2023-05-10T14:45:01;31.48;;;18.98;;
22843;SDS011;11588;51.178;4.852;2023-05-10T14:47:26;24.23;;;15.30;;
22843;SDS011;11588;51.178;4.852;2023-05-10T14:49:52;22.27;;;14.57;;
22843;SDS011;11588;51.178;4.852;2023-05-10T14:52:17;23.98;;;14.77;;
22843;SDS011;11588;51.178;4.852;2023-05-10T14:54:44;23.35;;;15.52;;